sensor_id;sensor_type;location;lat;lon;timestamp;pressure;altitude;pressure_sealevel;temperature;humidity
79481;BME280;68944;48.262;14.208;2023-05-24T00:00:28;98284.72;;;18.13;65.55
79481;BME280;68944;48.262;14.208;2023-05-24T00:02:53;98276.63;;;18.18;65.44
79481;BME280;68944;48.262;14.208;2023-05-24T00:05:22;98281.22;;;18.23;66.23
79481;BME280;68944;48.262;14.208;2023-05-24T00:07:48;98289.81;;;18.19;65.94
79481;BME280;68944;48.262;14.208;2023-05-24T00:10:14;98280.69;;;18.26;66.21
79481;BME280;68944;48.262;14.208;2023-05-24T00:12:39;98283.91;;;18.28;66.08
79481;BME280;68944;48.262;14.208;2023-05-24T00:15:05;98288.97;;;18.35;66.13
79481;BME280;68944;48.262;14.208;2023-05-24T00:17:31;98271.84;;;18.20;66.07
79481;BME280;68944;48.262;14.208;2023-05-24T00:19:59;98290.06;;;18.07;66.85
79481;BME280;68944;48.262;14.208;2023-05-24T00:22:24;98290.59;;;18.04;67.02
79481;BME280;68944;48.262;14.208;2023-05-24T00:24:50;98272.94;;;18.03;67.02
79481;BME280;68944;48.262;14.208;2023-05-24T00:27:15;98265.94;;;18.13;67.19
79481;BME280;68944;48.262;14.208;2023-05-24T00:29:41;98267.25;;;18.15;67.39
79481;BME280;68944;48.262;14.208;2023-05-24T00:32:06;98275.03;;;18.17;67.92
79481;BME280;68944;48.262;14.208;2023-05-24T00:34:32;98268.09;;;18.21;68.12
79481;BME280;68944;48.262;14.208;2023-05-24T00:36:57;98267.00;;;18.27;67.65
79481;BME280;68944;48.262;14.208;2023-05-24T00:39:25;98276.13;;;18.26;68.47
79481;BME280;68944;48.262;14.208;2023-05-24T00:41:51;98272.13;;;18.18;68.37
79481;BME280;68944;48.262;14.208;2023-05-24T00:44:16;98275.03;;;18.17;68.46
79481;BME280;68944;48.262;14.208;2023-05-24T00:46:42;98278.28;;;17.98;68.63
79481;BME280;68944;48.262;14.208;2023-05-24T00:49:08;98273.50;;;17.69;68.75
79481;BME280;68944;48.262;14.208;2023-05-24T00:51:34;98282.03;;;17.60;68.98
79481;BME280;68944;48.262;14.208;2023-05-24T00:54:01;98281.50;;;17.63;68.83
79481;BME280;68944;48.262;14.208;2023-05-24T00:56:27;98264.38;;;17.59;68.50
79481;BME280;68944;48.262;14.208;2023-05-24T00:58:52;98269.72;;;17.59;68.25
79481;BME280;68944;48.262;14.208;2023-05-24T01:01:21;98282.31;;;17.64;68.10
79481;BME280;68944;48.262;14.208;2023-05-24T01:03:53;98276.69;;;17.60;68.13
79481;BME280;68944;48.262;14.208;2023-05-24T01:06:19;98283.38;;;17.58;67.78
79481;BME280;68944;48.262;14.208;2023-05-24T01:20:03;98286.06;;;17.58;67.46
79481;BME280;68944;48.262;14.208;2023-05-24T01:22:57;98269.69;;;17.44;67.38
79481;BME280;68944;48.262;14.208;2023-05-24T01:28:13;98262.69;;;17.16;68.71
79481;BME280;68944;48.262;14.208;2023-05-24T01:30:41;98278.25;;;17.20;68.72
79481;BME280;68944;48.262;14.208;2023-05-24T01:33:07;98286.28;;;17.20;68.92
79481;BME280;68944;48.262;14.208;2023-05-24T01:35:33;98282.50;;;17.21;68.75
79481;BME280;68944;48.262;14.208;2023-05-24T01:38:05;98271.03;;;17.20;68.96
79481;BME280;68944;48.262;14.208;2023-05-24T01:40:33;98273.97;;;17.29;68.85
79481;BME280;68944;48.262;14.208;2023-05-24T01:43:14;98272.38;;;17.28;68.96
79481;BME280;68944;48.262;14.208;2023-05-24T01:47:05;98282.00;;;17.24;68.94
79481;BME280;68944;48.262;14.208;2023-05-24T01:49:12;98283.28;;;17.11;69.29
79481;BME280;68944;48.262;14.208;2023-05-24T01:52:10;98288.38;;;17.12;69.18
79481;BME280;68944;48.262;14.208;2023-05-24T01:54:38;98288.63;;;17.05;69.17
79481;BME280;68944;48.262;14.208;2023-05-24T01:57:09;98280.84;;;17.04;68.99
79481;BME280;68944;48.262;14.208;2023-05-24T01:59:35;98273.34;;;17.01;69.06
79481;BME280;68944;48.262;14.208;2023-05-24T02:02:04;98278.19;;;17.09;69.13
79481;BME280;68944;48.262;14.208;2023-05-24T02:04:30;98277.38;;;17.14;69.22
79481;BME280;68944;48.262;14.208;2023-05-24T02:06:55;98280.84;;;17.09;69.21
79481;BME280;68944;48.262;14.208;2023-05-24T02:09:21;98288.13;;;17.19;68.83
79481;BME280;68944;48.262;14.208;2023-05-24T02:11:48;98273.09;;;17.08;69.04
79481;BME280;68944;48.262;14.208;2023-05-24T02:14:13;98278.72;;;17.06;68.67
79481;BME280;68944;48.262;14.208;2023-05-24T02:16:39;98286.78;;;17.16;67.98
79481;BME280;68944;48.262;14.208;2023-05-24T02:19:08;98283.25;;;17.00;68.11
79481;BME280;68944;48.262;14.208;2023-05-24T02:21:33;98283.25;;;17.00;68.04
79481;BME280;68944;48.262;14.208;2023-05-24T02:23:59;98277.63;;;16.97;67.87
79481;BME280;68944;48.262;14.208;2023-05-24T02:26:24;98283.47;;;16.88;67.57
79481;BME280;68944;48.262;14.208;2023-05-24T02:28:50;98284.03;;;16.95;66.98
79481;BME280;68944;48.262;14.208;2023-05-24T02:31:16;98292.09;;;17.11;66.95
79481;BME280;68944;48.262;14.208;2023-05-24T02:33:42;98293.50;;;17.29;66.56
79481;BME280;68944;48.262;14.208;2023-05-24T02:36:08;98297.53;;;17.32;66.87
79481;BME280;68944;48.262;14.208;2023-05-24T02:38:33;98289.25;;;17.44;65.75
79481;BME280;68944;48.262;14.208;2023-05-24T02:40:59;98301.31;;;17.52;65.80
79481;BME280;68944;48.262;14.208;2023-05-24T02:43:24;98289.53;;;17.58;65.29
79481;BME280;68944;48.262;14.208;2023-05-24T02:45:50;98290.34;;;17.59;65.20
79481;BME280;68944;48.262;14.208;2023-05-24T02:48:15;98296.78;;;17.63;65.38
79481;BME280;68944;48.262;14.208;2023-05-24T02:50:41;98295.44;;;17.66;64.66
79481;BME280;68944;48.262;14.208;2023-05-24T02:53:06;98292.22;;;17.53;64.82
79481;BME280;68944;48.262;14.208;2023-05-24T02:55:33;98298.38;;;17.54;65.11
79481;BME280;68944;48.262;14.208;2023-05-24T02:57:58;98291.94;;;17.49;65.11
79481;BME280;68944;48.262;14.208;2023-05-24T03:00:24;98290.28;;;17.27;65.01
79481;BME280;68944;48.262;14.208;2023-05-24T03:02:50;98298.06;;;17.34;65.45
79481;BME280;68944;48.262;14.208;2023-05-24T03:05:16;98299.66;;;17.30;65.56
79481;BME280;68944;48.262;14.208;2023-05-24T03:07:42;98290.56;;;17.26;65.75
79481;BME280;68944;48.262;14.208;2023-05-24T03:10:08;98294.59;;;17.28;65.62
79481;BME280;68944;48.262;14.208;2023-05-24T03:12:33;98295.41;;;17.29;65.98
79481;BME280;68944;48.262;14.208;2023-05-24T03:14:59;98290.03;;;17.29;65.92
79481;BME280;68944;48.262;14.208;2023-05-24T03:17:25;98302.09;;;17.32;66.07
79481;BME280;68944;48.262;14.208;2023-05-24T03:19:50;98300.66;;;17.13;66.01
79481;BME280;68944;48.262;14.208;2023-05-24T03:22:17;98290.78;;;17.14;65.85
79481;BME280;68944;48.262;14.208;2023-05-24T03:24:43;98312.78;;;17.21;65.99
79481;BME280;68944;48.262;14.208;2023-05-24T03:27:10;98305.56;;;17.27;65.56
79481;BME280;68944;48.262;14.208;2023-05-24T03:29:36;98308.78;;;17.34;65.47
79481;BME280;68944;48.262;14.208;2023-05-24T03:32:02;98308.53;;;17.36;65.35
79481;BME280;68944;48.262;14.208;2023-05-24T03:34:27;98307.16;;;17.28;65.47
79481;BME280;68944;48.262;14.208;2023-05-24T03:36:54;98311.22;;;17.41;65.06
79481;BME280;68944;48.262;14.208;2023-05-24T03:39:20;98316.28;;;17.37;65.16
79481;BME280;68944;48.262;14.208;2023-05-24T03:41:54;98309.34;;;17.36;65.36
79481;BME280;68944;48.262;14.208;2023-05-24T03:44:19;98327.53;;;17.39;65.46
79481;BME280;68944;48.262;14.208;2023-05-24T03:46:45;98321.66;;;17.37;65.23
79481;BME280;68944;48.262;14.208;2023-05-24T03:49:11;98322.41;;;17.27;65.31
79481;BME280;68944;48.262;14.208;2023-05-24T03:51:36;98317.06;;;17.17;65.84
79481;BME280;68944;48.262;14.208;2023-05-24T03:54:02;98325.84;;;17.12;65.99
79481;BME280;68944;48.262;14.208;2023-05-24T03:56:27;98331.78;;;17.20;65.89
79481;BME280;68944;48.262;14.208;2023-05-24T03:58:53;98326.44;;;17.20;65.63
79481;BME280;68944;48.262;14.208;2023-05-24T04:01:18;98339.28;;;17.17;66.07
79481;BME280;68944;48.262;14.208;2023-05-24T04:03:45;98336.22;;;16.98;66.23
79481;BME280;68944;48.262;14.208;2023-05-24T04:06:11;98347.72;;;16.93;66.72
79481;BME280;68944;48.262;14.208;2023-05-24T04:08:37;98351.16;;;16.89;66.88
79481;BME280;68944;48.262;14.208;2023-05-24T04:11:02;98342.88;;;16.85;66.73
79481;BME280;68944;48.262;14.208;2023-05-24T04:13:28;98347.19;;;17.02;66.60
79481;BME280;68944;48.262;14.208;2023-05-24T04:15:53;98335.41;;;16.98;66.90
79481;BME280;68944;48.262;14.208;2023-05-24T04:18:19;98336.44;;;16.86;66.98
79481;BME280;68944;48.262;14.208;2023-05-24T04:20:45;98348.72;;;16.82;66.98
79481;BME280;68944;48.262;14.208;2023-05-24T04:23:11;98345.78;;;16.83;67.38
79481;BME280;68944;48.262;14.208;2023-05-24T04:25:37;98348.25;;;16.95;67.15
79481;BME280;68944;48.262;14.208;2023-05-24T04:28:04;98345.09;;;17.04;67.00
79481;BME280;68944;48.262;14.208;2023-05-24T04:30:31;98337.94;;;17.15;66.79
79481;BME280;68944;48.262;14.208;2023-05-24T04:32:57;98337.69;;;17.27;65.99
79481;BME280;68944;48.262;14.208;2023-05-24T04:35:23;98336.59;;;17.23;66.02
79481;BME280;68944;48.262;14.208;2023-05-24T04:37:50;98345.88;;;16.99;66.36
79481;BME280;68944;48.262;14.208;2023-05-24T04:40:18;98360.84;;;17.00;66.98
79481;BME280;68944;48.262;14.208;2023-05-24T04:42:45;98362.44;;;16.96;67.50
79481;BME280;68944;48.262;14.208;2023-05-24T04:45:11;98356.81;;;16.98;67.28
79481;BME280;68944;48.262;14.208;2023-05-24T04:47:36;98361.41;;;17.08;67.11
79481;BME280;68944;48.262;14.208;2023-05-24T04:50:02;98356.41;;;17.22;67.19
79481;BME280;68944;48.262;14.208;2023-05-24T04:52:28;98351.06;;;17.32;66.95
79481;BME280;68944;48.262;14.208;2023-05-24T04:54:54;98359.13;;;17.37;67.16
79481;BME280;68944;48.262;14.208;2023-05-24T04:57:22;98357.56;;;17.47;67.07
79481;BME280;68944;48.262;14.208;2023-05-24T04:59:47;98355.41;;;17.38;67.51
79481;BME280;68944;48.262;14.208;2023-05-24T05:02:13;98363.94;;;17.30;67.09
79481;BME280;68944;48.262;14.208;2023-05-24T05:04:38;98361.00;;;17.32;66.08
79481;BME280;68944;48.262;14.208;2023-05-24T05:07:04;98361.25;;;17.30;64.87
79481;BME280;68944;48.262;14.208;2023-05-24T05:09:29;98358.56;;;17.30;63.94
79481;BME280;68944;48.262;14.208;2023-05-24T05:11:55;98355.09;;;17.24;64.12
79481;BME280;68944;48.262;14.208;2023-05-24T05:14:20;98349.75;;;17.24;63.81
79481;BME280;68944;48.262;14.208;2023-05-24T05:16:46;98355.09;;;17.35;63.89
79481;BME280;68944;48.262;14.208;2023-05-24T05:19:12;98359.41;;;17.36;63.94
79481;BME280;68944;48.262;14.208;2023-05-24T05:21:37;98357.78;;;17.35;63.84
79481;BME280;68944;48.262;14.208;2023-05-24T05:24:04;98353.22;;;17.30;63.81
79481;BME280;68944;48.262;14.208;2023-05-24T05:26:30;98364.22;;;17.34;63.42
79481;BME280;68944;48.262;14.208;2023-05-24T05:28:58;98364.78;;;17.41;63.62
79481;BME280;68944;48.262;14.208;2023-05-24T05:31:24;98370.13;;;17.36;63.75
79481;BME280;68944;48.262;14.208;2023-05-24T05:33:50;98367.72;;;17.39;63.44
79481;BME280;68944;48.262;14.208;2023-05-24T05:36:16;98360.19;;;17.31;62.79
79481;BME280;68944;48.262;14.208;2023-05-24T05:38:41;98367.69;;;17.29;61.95
79481;BME280;68944;48.262;14.208;2023-05-24T05:41:07;98374.88;;;17.23;61.49
79481;BME280;68944;48.262;14.208;2023-05-24T05:43:33;98373.31;;;17.33;61.23
79481;BME280;68944;48.262;14.208;2023-05-24T05:45:58;98367.69;;;17.29;61.52
79481;BME280;68944;48.262;14.208;2023-05-24T05:48:25;98365.78;;;17.29;62.07
79481;BME280;68944;48.262;14.208;2023-05-24T05:50:51;98375.16;;;17.22;62.12
79481;BME280;68944;48.262;14.208;2023-05-24T05:53:16;98384.00;;;17.27;62.11
79481;BME280;68944;48.262;14.208;2023-05-24T05:55:42;98401.16;;;17.26;62.02
79481;BME280;68944;48.262;14.208;2023-05-24T05:58:07;98404.63;;;17.27;62.06
79481;BME280;68944;48.262;14.208;2023-05-24T06:00:33;98394.03;;;17.04;62.31
79481;BME280;68944;48.262;14.208;2023-05-24T06:02:58;98408.81;;;17.12;62.12
79481;BME280;68944;48.262;14.208;2023-05-24T06:05:24;98406.13;;;17.12;62.03
79481;BME280;68944;48.262;14.208;2023-05-24T06:07:49;98405.72;;;17.31;61.91
79481;BME280;68944;48.262;14.208;2023-05-24T06:10:15;98391.25;;;17.32;61.01
79481;BME280;68944;48.262;14.208;2023-05-24T06:12:40;98391.81;;;17.39;60.94
79481;BME280;68944;48.262;14.208;2023-05-24T06:15:06;98390.75;;;17.51;61.53
79481;BME280;68944;48.262;14.208;2023-05-24T06:17:33;98393.72;;;17.60;60.77
79481;BME280;68944;48.262;14.208;2023-05-24T06:19:59;98403.41;;;17.66;60.98
79481;BME280;68944;48.262;14.208;2023-05-24T06:22:25;98400.97;;;17.65;60.96
79481;BME280;68944;48.262;14.208;2023-05-24T06:24:52;98403.66;;;17.70;61.17
79481;BME280;68944;48.262;14.208;2023-05-24T06:27:18;98406.34;;;17.65;61.35
79481;BME280;68944;48.262;14.208;2023-05-24T06:29:43;98399.41;;;17.69;61.06
79481;BME280;68944;48.262;14.208;2023-05-24T06:32:09;98400.97;;;17.59;60.88
79481;BME280;68944;48.262;14.208;2023-05-24T06:34:34;98396.69;;;17.58;60.31
79481;BME280;68944;48.262;14.208;2023-05-24T06:37:00;98403.66;;;17.70;60.61
79481;BME280;68944;48.262;14.208;2023-05-24T06:39:26;98401.53;;;17.77;60.86
79481;BME280;68944;48.262;14.208;2023-05-24T06:41:52;98393.50;;;17.72;60.43
79481;BME280;68944;48.262;14.208;2023-05-24T06:44:23;98412.81;;;17.84;60.15
79481;BME280;68944;48.262;14.208;2023-05-24T06:46:55;98404.50;;;17.81;60.10
79481;BME280;68944;48.262;14.208;2023-05-24T06:49:20;98411.19;;;17.83;59.69
79481;BME280;68944;48.262;14.208;2023-05-24T06:51:46;98418.19;;;17.84;60.22
79481;BME280;68944;48.262;14.208;2023-05-24T06:54:12;98406.66;;;17.73;59.97
79481;BME280;68944;48.262;14.208;2023-05-24T06:56:37;98427.53;;;17.82;60.04
79481;BME280;68944;48.262;14.208;2023-05-24T06:59:03;98424.06;;;17.81;59.57
79481;BME280;68944;48.262;14.208;2023-05-24T07:01:28;98428.88;;;17.79;59.85
79481;BME280;68944;48.262;14.208;2023-05-24T07:03:54;98431.31;;;17.86;59.59
79481;BME280;68944;48.262;14.208;2023-05-24T07:06:19;98436.97;;;18.05;58.74
79481;BME280;68944;48.262;14.208;2023-05-24T07:08:45;98441.78;;;18.08;59.04
79481;BME280;68944;48.262;14.208;2023-05-24T07:11:11;98439.13;;;18.03;59.34
79481;BME280;68944;48.262;14.208;2023-05-24T07:13:36;98433.75;;;18.03;58.73
79481;BME280;68944;48.262;14.208;2023-05-24T07:16:02;98439.66;;;18.05;58.19
79481;BME280;68944;48.262;14.208;2023-05-24T07:18:27;98443.13;;;17.95;59.08
79481;BME280;68944;48.262;14.208;2023-05-24T07:20:53;98439.38;;;17.96;58.92
79481;BME280;68944;48.262;14.208;2023-05-24T07:23:19;98440.44;;;18.11;58.83
79481;BME280;68944;48.262;14.208;2023-05-24T07:25:44;98440.19;;;18.18;58.68
79481;BME280;68944;48.262;14.208;2023-05-24T07:28:10;98440.75;;;18.30;58.58
79481;BME280;68944;48.262;14.208;2023-05-24T07:30:35;98438.63;;;18.33;57.30
79481;BME280;68944;48.262;14.208;2023-05-24T07:33:03;98436.47;;;18.45;57.15
79481;BME280;68944;48.262;14.208;2023-05-24T07:35:28;98437.00;;;18.68;57.40
79481;BME280;68944;48.262;14.208;2023-05-24T07:37:55;98431.06;;;18.87;57.50
79481;BME280;68944;48.262;14.208;2023-05-24T07:40:21;98442.28;;;19.10;57.39
79481;BME280;68944;48.262;14.208;2023-05-24T07:42:47;98425.09;;;19.16;57.26
79481;BME280;68944;48.262;14.208;2023-05-24T07:45:12;98428.53;;;19.27;57.34
79481;BME280;68944;48.262;14.208;2023-05-24T07:47:39;98438.44;;;19.32;56.49
79481;BME280;68944;48.262;14.208;2023-05-24T07:50:05;98439.94;;;19.59;55.31
79481;BME280;68944;48.262;14.208;2023-05-24T07:52:31;98439.09;;;19.64;55.06
79481;BME280;68944;48.262;14.208;2023-05-24T07:54:56;98442.50;;;19.80;53.54
79481;BME280;68944;48.262;14.208;2023-05-24T07:57:22;98432.47;;;19.96;53.84
79481;BME280;68944;48.262;14.208;2023-05-24T07:59:48;98434.28;;;20.11;53.00
79481;BME280;68944;48.262;14.208;2023-05-24T08:02:13;98436.38;;;20.20;53.55
79481;BME280;68944;48.262;14.208;2023-05-24T08:04:41;98439.94;;;20.45;52.09
79481;BME280;68944;48.262;14.208;2023-05-24T08:07:07;98435.50;;;20.60;51.16
79481;BME280;68944;48.262;14.208;2023-05-24T08:09:34;98440.94;;;20.54;52.13
79481;BME280;68944;48.262;14.208;2023-05-24T08:12:04;98441.13;;;20.63;51.93
79481;BME280;68944;48.262;14.208;2023-05-24T08:14:30;98441.78;;;20.79;51.80
79481;BME280;68944;48.262;14.208;2023-05-24T08:16:56;98442.31;;;20.82;51.68
79481;BME280;68944;48.262;14.208;2023-05-24T08:19:21;98442.34;;;20.76;52.35
79481;BME280;68944;48.262;14.208;2023-05-24T08:21:48;98439.31;;;20.83;51.53
79481;BME280;68944;48.262;14.208;2023-05-24T08:24:14;98448.81;;;20.75;51.87
79481;BME280;68944;48.262;14.208;2023-05-24T08:26:39;98445.19;;;20.61;51.53
79481;BME280;68944;48.262;14.208;2023-05-24T08:29:05;98442.50;;;20.61;51.79
79481;BME280;68944;48.262;14.208;2023-05-24T08:31:30;98436.34;;;20.55;52.26
79481;BME280;68944;48.262;14.208;2023-05-24T08:33:58;98431.00;;;20.50;52.03
79481;BME280;68944;48.262;14.208;2023-05-24T08:36:23;98443.19;;;20.42;52.67
79481;BME280;68944;48.262;14.208;2023-05-24T08:38:49;98442.44;;;20.36;52.46
79481;BME280;68944;48.262;14.208;2023-05-24T08:41:14;98438.00;;;20.16;52.69
79481;BME280;68944;48.262;14.208;2023-05-24T08:43:41;98444.66;;;19.83;53.46
79481;BME280;68944;48.262;14.208;2023-05-24T08:46:07;98449.81;;;19.74;53.55
79481;BME280;68944;48.262;14.208;2023-05-24T08:48:44;98443.44;;;19.60;53.77
79481;BME280;68944;48.262;14.208;2023-05-24T08:51:10;98443.19;;;19.61;54.81
79481;BME280;68944;48.262;14.208;2023-05-24T08:53:37;98446.38;;;19.63;55.06
79481;BME280;68944;48.262;14.208;2023-05-24T08:56:03;98434.72;;;19.78;54.41
79481;BME280;68944;48.262;14.208;2023-05-24T08:58:29;98435.03;;;19.77;55.10
79481;BME280;68944;48.262;14.208;2023-05-24T09:00:57;98440.63;;;19.81;55.86
79481;BME280;68944;48.262;14.208;2023-05-24T09:03:22;98434.06;;;20.03;54.45
79481;BME280;68944;48.262;14.208;2023-05-24T09:05:49;98439.66;;;20.06;54.49
79481;BME280;68944;48.262;14.208;2023-05-24T09:08:15;98444.50;;;20.09;53.84
79481;BME280;68944;48.262;14.208;2023-05-24T09:10:43;98433.75;;;20.09;54.17
79481;BME280;68944;48.262;14.208;2023-05-24T09:13:09;98433.75;;;20.15;54.27
79481;BME280;68944;48.262;14.208;2023-05-24T09:15:36;98425.41;;;20.11;54.34
79481;BME280;68944;48.262;14.208;2023-05-24T09:18:01;98419.72;;;20.18;54.02
79481;BME280;68944;48.262;14.208;2023-05-24T09:20:27;98429.41;;;20.19;54.53
79481;BME280;68944;48.262;14.208;2023-05-24T09:22:54;98431.66;;;20.36;54.19
79481;BME280;68944;48.262;14.208;2023-05-24T09:25:20;98427.75;;;20.23;53.56
79481;BME280;68944;48.262;14.208;2023-05-24T09:27:50;98424.38;;;20.42;54.01
79481;BME280;68944;48.262;14.208;2023-05-24T09:30:16;98428.13;;;20.41;54.13
79481;BME280;68944;48.262;14.208;2023-05-24T09:32:53;98435.09;;;20.47;52.70
79481;BME280;68944;48.262;14.208;2023-05-24T09:35:18;98419.31;;;20.35;53.51
79481;BME280;68944;48.262;14.208;2023-05-24T09:37:44;98417.69;;;20.34;52.27
79481;BME280;68944;48.262;14.208;2023-05-24T09:40:18;98412.41;;;20.23;53.28
79481;BME280;68944;48.262;14.208;2023-05-24T09:42:46;98405.44;;;20.52;53.07
79481;BME280;68944;48.262;14.208;2023-05-24T09:45:15;98426.19;;;20.76;51.73
79481;BME280;68944;48.262;14.208;2023-05-24T09:47:42;98427.66;;;20.93;51.82
79481;BME280;68944;48.262;14.208;2023-05-24T09:50:13;98420.09;;;20.95;52.92
79481;BME280;68944;48.262;14.208;2023-05-24T09:52:39;98433.06;;;21.18;50.75
79481;BME280;68944;48.262;14.208;2023-05-24T09:57:37;98421.09;;;21.48;50.28
79481;BME280;68944;48.262;14.208;2023-05-24T10:00:06;98421.84;;;21.74;50.37
79481;BME280;68944;48.262;14.208;2023-05-24T10:02:44;98423.28;;;21.66;48.72
79481;BME280;68944;48.262;14.208;2023-05-24T10:05:11;98405.81;;;22.02;47.92
79481;BME280;68944;48.262;14.208;2023-05-24T10:07:37;98411.50;;;22.34;46.97
79481;BME280;68944;48.262;14.208;2023-05-24T10:10:05;98406.22;;;22.43;46.39
79481;BME280;68944;48.262;14.208;2023-05-24T10:12:33;98409.16;;;22.46;45.81
79481;BME280;68944;48.262;14.208;2023-05-24T10:15:00;98412.22;;;22.54;45.98
79481;BME280;68944;48.262;14.208;2023-05-24T10:17:27;98407.22;;;22.47;45.35
79481;BME280;68944;48.262;14.208;2023-05-24T10:19:53;98405.66;;;22.60;45.80
79481;BME280;68944;48.262;14.208;2023-05-24T10:22:20;98390.00;;;22.76;46.06
79481;BME280;68944;48.262;14.208;2023-05-24T10:24:48;98402.91;;;23.07;45.02
79481;BME280;68944;48.262;14.208;2023-05-24T10:27:21;98395.06;;;23.34;44.99
79481;BME280;68944;48.262;14.208;2023-05-24T10:29:53;98409.16;;;23.45;44.36
79481;BME280;68944;48.262;14.208;2023-05-24T10:32:24;98402.38;;;23.34;44.08
79481;BME280;68944;48.262;14.208;2023-05-24T10:34:57;98405.56;;;23.36;42.72
79481;BME280;68944;48.262;14.208;2023-05-24T10:37:24;98413.47;;;23.46;42.86
79481;BME280;68944;48.262;14.208;2023-05-24T10:39:50;98409.50;;;23.81;44.20
79481;BME280;68944;48.262;14.208;2023-05-24T10:42:16;98400.53;;;23.94;42.83
79481;BME280;68944;48.262;14.208;2023-05-24T10:44:42;98404.91;;;23.67;41.90
79481;BME280;68944;48.262;14.208;2023-05-24T10:49:35;98402.88;;;23.87;41.31
79481;BME280;68944;48.262;14.208;2023-05-24T10:52:06;98397.34;;;23.92;40.42
79481;BME280;68944;48.262;14.208;2023-05-24T10:54:32;98402.78;;;24.47;41.85
79481;BME280;68944;48.262;14.208;2023-05-24T10:57:00;98404.97;;;24.77;41.40
79481;BME280;68944;48.262;14.208;2023-05-24T10:59:30;98405.94;;;25.13;42.48
79481;BME280;68944;48.262;14.208;2023-05-24T11:01:59;98402.59;;;25.25;41.58
79481;BME280;68944;48.262;14.208;2023-05-24T11:04:29;98398.31;;;25.24;40.93
79481;BME280;68944;48.262;14.208;2023-05-24T11:07:03;98411.59;;;25.52;41.15
79481;BME280;68944;48.262;14.208;2023-05-24T11:09:31;98411.88;;;25.42;41.78
79481;BME280;68944;48.262;14.208;2023-05-24T11:12:03;98402.28;;;25.18;42.16
79481;BME280;68944;48.262;14.208;2023-05-24T11:14:35;98412.44;;;25.03;43.20
79481;BME280;68944;48.262;14.208;2023-05-24T11:17:00;98402.16;;;24.82;42.91
79481;BME280;68944;48.262;14.208;2023-05-24T11:19:34;98405.91;;;24.31;44.51
79481;BME280;68944;48.262;14.208;2023-05-24T11:22:10;98399.56;;;23.90;44.68
79481;BME280;68944;48.262;14.208;2023-05-24T11:24:39;98405.34;;;23.60;45.51
79481;BME280;68944;48.262;14.208;2023-05-24T11:27:06;98414.78;;;23.49;45.93
79481;BME280;68944;48.262;14.208;2023-05-24T11:29:32;98408.09;;;23.18;46.07
79481;BME280;68944;48.262;14.208;2023-05-24T11:32:04;98405.50;;;22.99;46.75
79481;BME280;68944;48.262;14.208;2023-05-24T11:34:30;98412.72;;;23.03;46.69
79481;BME280;68944;48.262;14.208;2023-05-24T11:37:02;98407.13;;;23.00;46.36
79481;BME280;68944;48.262;14.208;2023-05-24T11:39:34;98400.91;;;22.99;46.38
79481;BME280;68944;48.262;14.208;2023-05-24T11:42:00;98393.09;;;23.12;46.29
79481;BME280;68944;48.262;14.208;2023-05-24T11:44:30;98398.97;;;23.28;45.41
79481;BME280;68944;48.262;14.208;2023-05-24T11:46:57;98405.16;;;23.42;45.18
79481;BME280;68944;48.262;14.208;2023-05-24T11:49:23;98404.31;;;23.70;45.47
79481;BME280;68944;48.262;14.208;2023-05-24T11:51:52;98396.09;;;23.75;45.56
79481;BME280;68944;48.262;14.208;2023-05-24T11:54:19;98405.25;;;24.12;44.55
79481;BME280;68944;48.262;14.208;2023-05-24T11:56:46;98399.84;;;24.35;44.05
79481;BME280;68944;48.262;14.208;2023-05-24T12:01:47;98400.00;;;24.29;44.44
79481;BME280;68944;48.262;14.208;2023-05-24T12:04:12;98397.56;;;24.28;44.23
79481;BME280;68944;48.262;14.208;2023-05-24T12:06:41;98396.69;;;24.18;43.21
79481;BME280;68944;48.262;14.208;2023-05-24T12:09:08;98395.00;;;24.00;43.99
79481;BME280;68944;48.262;14.208;2023-05-24T12:11:42;98387.72;;;23.86;43.95
79481;BME280;68944;48.262;14.208;2023-05-24T12:14:27;98392.09;;;23.73;44.24
79481;BME280;68944;48.262;14.208;2023-05-24T12:16:55;98392.03;;;23.64;44.31
79481;BME280;68944;48.262;14.208;2023-05-24T12:19:22;98388.63;;;23.58;44.31
79481;BME280;68944;48.262;14.208;2023-05-24T12:21:56;98387.22;;;23.61;43.74
79481;BME280;68944;48.262;14.208;2023-05-24T12:24:23;98385.81;;;23.63;44.11
79481;BME280;68944;48.262;14.208;2023-05-24T12:26:50;98384.25;;;23.85;43.13
79481;BME280;68944;48.262;14.208;2023-05-24T12:29:16;98388.34;;;24.06;43.42
79481;BME280;68944;48.262;14.208;2023-05-24T12:31:43;98385.38;;;24.16;43.48
79481;BME280;68944;48.262;14.208;2023-05-24T12:36:39;98386.97;;;26.11;40.26
79481;BME280;68944;48.262;14.208;2023-05-24T12:39:20;98381.72;;;27.75;36.92
79481;BME280;68944;48.262;14.208;2023-05-24T12:41:54;98397.13;;;27.49;36.99
79481;BME280;68944;48.262;14.208;2023-05-24T12:44:38;98390.88;;;27.27;37.38
79481;BME280;68944;48.262;14.208;2023-05-24T12:47:05;98393.06;;;27.04;38.33
79481;BME280;68944;48.262;14.208;2023-05-24T12:49:31;98379.38;;;26.61;38.13
79481;BME280;68944;48.262;14.208;2023-05-24T12:51:57;98387.78;;;26.77;37.70
79481;BME280;68944;48.262;14.208;2023-05-24T12:54:27;98380.91;;;26.80;37.12
79481;BME280;68944;48.262;14.208;2023-05-24T12:56:54;98383.97;;;26.69;36.56
79481;BME280;68944;48.262;14.208;2023-05-24T12:59:20;98389.41;;;27.00;36.10
79481;BME280;68944;48.262;14.208;2023-05-24T13:01:45;98375.53;;;26.92;35.23
79481;BME280;68944;48.262;14.208;2023-05-24T13:04:14;98381.66;;;26.89;36.88
79481;BME280;68944;48.262;14.208;2023-05-24T13:06:41;98374.59;;;26.88;36.66
79481;BME280;68944;48.262;14.208;2023-05-24T13:09:07;98380.31;;;26.96;36.01
79481;BME280;68944;48.262;14.208;2023-05-24T13:11:32;98373.38;;;26.77;37.18
79481;BME280;68944;48.262;14.208;2023-05-24T13:13:58;98378.69;;;26.73;37.51